Terminal Aerodrome Forecast
Issued by NWS

Home | Current Version | Previous Version | Text Only | Print | Product List | Glossary On
Versions: 1 2 3 4 5 6 7 8 9 10 11 12 13 14 15 16 17 18 19 20 21 22 23 24 25
000
FTUS42 KJAX 230520
TAFCRG
TAF
KCRG 230520Z 2306/2406 12010KT P6SM VCSH BKN009 BKN020 OVC050
     FM230900 13009KT 5SM -SHRA BR BKN006 OVC020
     FM231400 15012G18KT P6SM VCSH SCT025 BKN040 OVC120
     FM231700 17014G22KT P6SM VCTS BKN030CB OVC090 PROB30 2318/2322
      VRB20G30KT 3SM +TSRA BR BKN020CB OVC040
     FM232300 19012KT P6SM VCSH OVC020=

USA.gov is the U.S. government's official web portal to all federal, state and local government web resources and services.